createdAt,value
2022-08-02T00:02:40.900Z,78.54
2022-08-02T00:05:27.521Z,77.92
2022-08-02T00:08:13.622Z,77.72
2022-08-02T00:11:00.640Z,77.68
2022-08-02T00:13:46.604Z,77.66
2022-08-02T00:16:37.939Z,77.32
2022-08-02T00:19:23.855Z,77.39
2022-08-02T00:22:10.633Z,77.28
2022-08-02T00:24:56.424Z,77.23
2022-08-02T00:27:41.981Z,77.63
2022-08-02T00:30:31.662Z,77.72
2022-08-02T00:34:26.571Z,77.90
2022-08-02T00:36:24.804Z,77.67
2022-08-02T00:39:33.809Z,77.76
2022-08-02T00:42:17.922Z,77.54
2022-08-02T00:45:04.234Z,77.27
2022-08-02T00:47:50.019Z,77.37
2022-08-02T00:50:37.290Z,77.13
2022-08-02T00:53:26.621Z,76.93
2022-08-02T00:56:12.994Z,77.15
2022-08-02T00:59:00.550Z,77.11
2022-08-02T01:01:56.654Z,76.83
2022-08-02T01:04:43.491Z,77.26
2022-08-02T01:07:28.986Z,77.21
2022-08-02T01:10:14.366Z,76.61
2022-08-02T01:12:59.823Z,76.14
2022-08-02T01:15:52.365Z,76.66
2022-08-02T01:18:46.596Z,77.14
2022-08-02T01:21:48.119Z,77.40
2022-08-02T01:24:52.505Z,77.54
2022-08-02T01:28:16.512Z,77.56
2022-08-02T01:31:33.031Z,77.13
2022-08-02T01:34:29.364Z,77.05
2022-08-02T01:37:29.047Z,77.14
2022-08-02T01:40:26.069Z,77.07
2022-08-02T01:43:14.744Z,77.31
2022-08-02T01:46:01.563Z,77.31
2022-08-02T01:48:54.172Z,77.01
2022-08-02T01:52:00.554Z,76.83
2022-08-02T01:54:49.834Z,76.41
2022-08-02T01:57:45.675Z,76.48
2022-08-02T02:00:35.007Z,76.52
2022-08-02T02:03:24.710Z,76.45
2022-08-02T02:06:12.434Z,76.41
2022-08-02T02:09:00.593Z,76.27
2022-08-02T02:12:09.554Z,76.78
2022-08-02T02:14:57.844Z,76.89
2022-08-02T02:18:11.981Z,76.80
2022-08-02T02:20:54.380Z,76.68
2022-08-02T02:23:40.712Z,76.58
2022-08-02T02:26:31.661Z,76.51
2022-08-02T02:29:19.495Z,76.55
2022-08-02T02:32:06.556Z,76.31
2022-08-02T02:34:55.472Z,76.55
2022-08-02T02:37:45.164Z,76.60
2022-08-02T02:40:33.225Z,76.36
2022-08-02T02:43:20.942Z,76.47
2022-08-02T02:46:08.952Z,76.75
2022-08-02T02:48:55.890Z,77.10
2022-08-02T02:51:42.782Z,77.29
2022-08-02T02:54:34.267Z,77.15
2022-08-02T02:57:21.939Z,77.27
2022-08-02T03:00:14.239Z,77.21
2022-08-02T03:03:02.392Z,76.89
2022-08-02T03:05:52.779Z,76.96
2022-08-02T03:08:38.913Z,76.95
2022-08-02T03:11:29.987Z,76.89
2022-08-02T03:14:16.192Z,76.70
2022-08-02T03:17:02.299Z,76.75
2022-08-02T03:19:47.594Z,76.55
2022-08-02T03:22:33.037Z,77.02
2022-08-02T03:25:19.487Z,77.17
2022-08-02T03:28:05.729Z,76.81
2022-08-02T03:30:53.511Z,76.85
2022-08-02T03:33:39.876Z,76.92
2022-08-02T03:36:29.265Z,77.09
2022-08-02T03:39:16.933Z,76.80
2022-08-02T03:42:02.887Z,76.89
2022-08-02T03:44:49.997Z,77.00
2022-08-02T03:47:37.671Z,76.98
2022-08-02T03:50:24.380Z,77.09
2022-08-02T03:53:19.920Z,77.15
2022-08-02T03:56:07.440Z,77.57
2022-08-02T03:59:23.270Z,77.71
2022-08-02T04:02:10.096Z,78.49
2022-08-02T04:04:56.107Z,78.66
2022-08-02T04:08:34.079Z,79.07
2022-08-02T04:11:05.745Z,78.91
2022-08-02T04:13:52.108Z,79.26
2022-08-02T04:16:50.835Z,78.73
2022-08-02T04:19:56.509Z,79.20
2022-08-02T04:22:55.161Z,79.46
2022-08-02T04:25:42.628Z,79.21
2022-08-02T04:28:29.703Z,79.16
2022-08-02T04:31:19.068Z,78.67
2022-08-02T04:34:05.476Z,79.10
2022-08-02T04:36:53.363Z,79.21
2022-08-02T04:39:42.385Z,78.05
2022-08-02T04:42:28.598Z,78.50
2022-08-02T04:45:18.768Z,79.15
2022-08-02T04:48:09.989Z,79.63
2022-08-02T04:50:57.281Z,80.17
2022-08-02T04:53:52.081Z,80.45
2022-08-02T04:56:40.800Z,80.47
2022-08-02T04:59:27.228Z,80.88
2022-08-02T05:02:13.232Z,80.47
2022-08-02T05:05:00.972Z,79.96
2022-08-02T05:07:47.239Z,79.45
2022-08-02T05:10:33.788Z,79.23
2022-08-02T05:13:19.761Z,78.16
2022-08-02T05:16:05.560Z,77.52
2022-08-02T05:18:51.267Z,76.90
2022-08-02T05:21:38.753Z,76.01
2022-08-02T05:24:24.816Z,74.99
2022-08-02T05:27:17.372Z,74.00
2022-08-02T05:30:09.160Z,72.88
2022-08-02T05:32:56.927Z,71.68
2022-08-02T05:35:44.162Z,71.03
2022-08-02T05:38:32.924Z,71.08
2022-08-02T05:41:24.090Z,70.61
2022-08-02T05:44:12.898Z,71.20
2022-08-02T05:47:00.595Z,70.46
2022-08-02T05:49:47.676Z,67.10
2022-08-02T05:52:49.142Z,66.74
2022-08-02T05:55:41.339Z,66.06
2022-08-02T05:58:41.349Z,66.36
2022-08-02T06:01:37.033Z,63.87
2022-08-02T06:04:50.608Z,63.75
2022-08-02T06:07:38.994Z,63.80
2022-08-02T06:10:30.272Z,64.28
2022-08-02T06:13:17.699Z,64.49
2022-08-02T06:16:05.737Z,63.91
2022-08-02T06:19:02.026Z,62.24
2022-08-02T06:22:31.367Z,62.88
2022-08-02T06:24:59.279Z,63.33
2022-08-02T06:27:49.541Z,61.24
2022-08-02T06:30:36.771Z,61.52
2022-08-02T06:33:26.120Z,61.31
2022-08-02T06:36:34.371Z,61.53
2022-08-02T06:39:36.344Z,59.70
2022-08-02T06:42:30.202Z,59.95
2022-08-02T06:45:16.667Z,59.82
2022-08-02T06:48:03.242Z,60.60
2022-08-02T06:50:48.637Z,59.70
2022-08-02T06:53:36.114Z,59.30
2022-08-02T06:56:22.785Z,56.62
2022-08-02T06:59:14.170Z,57.65
2022-08-02T07:02:03.743Z,58.29
2022-08-02T07:04:55.015Z,58.47
2022-08-02T07:07:41.423Z,57.75
2022-08-02T07:10:27.799Z,57.43
2022-08-02T07:13:14.093Z,57.59
2022-08-02T07:15:59.540Z,58.00
2022-08-02T07:18:44.900Z,58.33
2022-08-02T07:21:56.352Z,58.54
2022-08-02T07:24:42.051Z,56.25
2022-08-02T07:27:30.306Z,56.90
2022-08-02T07:30:17.295Z,57.67
2022-08-02T07:33:06.586Z,56.68
2022-08-02T07:35:55.695Z,56.01
2022-08-02T07:38:43.730Z,56.94
2022-08-02T07:41:35.770Z,55.57
2022-08-02T07:44:22.224Z,55.66
2022-08-02T07:47:25.490Z,54.91
2022-08-02T07:50:17.005Z,55.17
2022-08-02T07:53:14.245Z,56.65
2022-08-02T07:56:11.285Z,55.98
2022-08-02T07:59:00.829Z,54.12
2022-08-02T08:01:49.653Z,53.85
2022-08-02T08:04:36.440Z,54.67
2022-08-02T08:07:23.895Z,53.91
2022-08-02T08:10:10.221Z,52.90
2022-08-02T08:12:56.296Z,54.16
2022-08-02T08:15:42.569Z,55.82
2022-08-02T08:18:40.345Z,55.43
2022-08-02T08:21:26.043Z,53.72
2022-08-02T08:24:11.641Z,52.86
2022-08-02T08:26:57.343Z,54.64
2022-08-02T08:29:44.043Z,52.40
2022-08-02T08:32:29.924Z,53.35
2022-08-02T08:35:15.987Z,52.51
2022-08-02T08:38:06.934Z,51.54
2022-08-02T08:40:53.258Z,51.70
2022-08-02T08:43:39.655Z,51.92
2022-08-02T08:46:34.719Z,51.08
2022-08-02T08:49:40.352Z,50.22
2022-08-02T08:53:14.554Z,50.77
2022-08-02T08:56:00.969Z,49.01
2022-08-02T08:58:49.339Z,49.04
2022-08-02T09:01:50.560Z,50.32
2022-08-02T09:04:36.851Z,51.74
2022-08-02T09:07:24.840Z,51.40
2022-08-02T09:10:33.866Z,50.44
2022-08-02T09:13:37.543Z,49.17
2022-08-02T09:16:39.722Z,48.13
2022-08-02T09:19:27.001Z,49.47
2022-08-02T09:22:15.742Z,50.18
2022-08-02T09:25:02.343Z,48.15
2022-08-02T09:27:49.218Z,48.32
2022-08-02T09:30:43.528Z,47.60
2022-08-02T09:33:29.531Z,48.08
2022-08-02T09:36:16.722Z,50.34
2022-08-02T09:39:06.477Z,47.05
2022-08-02T09:42:10.804Z,45.68
2022-08-02T09:45:02.655Z,46.87
2022-08-02T09:47:50.555Z,45.44
2022-08-02T09:50:38.380Z,46.81
2022-08-02T09:53:26.382Z,48.07
2022-08-02T09:56:35.118Z,49.57
2022-08-02T09:59:21.974Z,47.83
2022-08-02T10:02:16.984Z,49.07
2022-08-02T10:05:03.987Z,50.48
2022-08-02T10:07:50.316Z,49.18
2022-08-02T10:10:36.265Z,46.47
2022-08-02T10:13:22.947Z,46.87
2022-08-02T10:16:10.371Z,46.85
2022-08-02T10:18:58.566Z,48.47
2022-08-02T10:21:57.887Z,49.04
2022-08-02T10:24:48.119Z,48.71
2022-08-02T10:28:03.666Z,50.07
2022-08-02T10:30:48.906Z,48.66
2022-08-02T10:33:38.324Z,48.00
2022-08-02T10:36:27.538Z,48.27
2022-08-02T10:39:13.398Z,48.05
2022-08-02T10:42:00.304Z,47.98
2022-08-02T10:44:49.118Z,47.55
2022-08-02T10:47:35.956Z,46.91
2022-08-02T10:50:21.200Z,47.44
2022-08-02T10:53:32.670Z,46.95
2022-08-02T10:56:51.051Z,47.05
2022-08-02T10:59:37.959Z,48.31
2022-08-02T11:03:03.642Z,49.55
2022-08-02T11:06:07.042Z,48.41
2022-08-02T11:09:33.427Z,46.42
2022-08-02T11:12:21.210Z,45.95
2022-08-02T11:15:07.563Z,46.91
2022-08-02T11:18:01.281Z,46.78
2022-08-02T11:20:47.154Z,48.25
2022-08-02T11:23:44.923Z,49.01
2022-08-02T11:26:32.817Z,48.39
2022-08-02T11:29:18.698Z,48.33
2022-08-02T11:32:04.993Z,47.19
2022-08-02T11:34:55.015Z,48.00
2022-08-02T11:37:46.024Z,47.68
2022-08-02T11:40:37.599Z,47.72
2022-08-02T11:43:27.626Z,46.90
2022-08-02T11:46:15.237Z,46.36
2022-08-02T11:49:21.727Z,47.45
2022-08-02T11:52:12.241Z,48.33
2022-08-02T11:54:59.202Z,48.85
2022-08-02T11:58:03.533Z,48.37
2022-08-02T12:00:59.521Z,50.23
2022-08-02T12:03:46.159Z,48.93
2022-08-02T12:06:33.747Z,48.88
2022-08-02T12:09:19.710Z,48.57
2022-08-02T12:12:06.331Z,49.10
2022-08-02T12:14:52.468Z,48.24
2022-08-02T12:17:56.424Z,49.38
2022-08-02T12:20:43.685Z,47.11
2022-08-02T12:23:32.166Z,46.84
2022-08-02T12:26:18.399Z,46.87
2022-08-02T12:29:04.160Z,45.56
2022-08-02T12:31:56.336Z,46.54
2022-08-02T12:34:44.311Z,47.38
2022-08-02T12:37:30.903Z,47.10
2022-08-02T12:40:25.414Z,45.57
2022-08-02T12:43:21.346Z,45.90
2022-08-02T12:46:16.191Z,45.60
2022-08-02T12:49:18.377Z,46.83
2022-08-02T12:52:25.297Z,46.06
2022-08-02T12:55:21.426Z,47.54
2022-08-02T12:58:08.064Z,46.69
2022-08-02T13:00:58.754Z,44.32
2022-08-02T13:04:11.961Z,45.41
2022-08-02T13:06:55.140Z,46.27
2022-08-02T13:09:50.260Z,46.96
2022-08-02T13:12:40.141Z,45.29
2022-08-02T13:15:49.231Z,44.33
2022-08-02T13:18:34.988Z,45.75
2022-08-02T13:21:39.901Z,45.67
2022-08-02T13:24:40.201Z,46.80
2022-08-02T13:27:40.354Z,46.88
2022-08-02T13:30:26.112Z,46.86
2022-08-02T13:33:13.768Z,47.38
2022-08-02T13:35:59.435Z,47.44
2022-08-02T13:38:45.570Z,47.49
2022-08-02T13:41:40.991Z,45.38
2022-08-02T13:44:29.401Z,45.99
2022-08-02T13:47:15.062Z,46.92
2022-08-02T13:50:21.740Z,47.16
2022-08-02T13:53:14.908Z,46.57
2022-08-02T13:56:03.006Z,45.65
2022-08-02T13:58:48.935Z,45.52
2022-08-02T14:01:36.090Z,45.84
2022-08-02T14:04:32.681Z,46.17
2022-08-02T14:07:18.395Z,44.31
2022-08-02T14:10:04.420Z,44.38
2022-08-02T14:12:56.462Z,45.38
2022-08-02T14:15:43.511Z,44.53
2022-08-02T14:18:29.299Z,43.78
2022-08-02T14:21:15.913Z,45.03
2022-08-02T14:24:01.791Z,46.89
2022-08-02T14:26:48.723Z,44.65
2022-08-02T14:29:34.653Z,44.19
2022-08-02T14:32:22.294Z,44.21
2022-08-02T14:35:18.039Z,44.36
2022-08-02T14:38:04.303Z,44.14
2022-08-02T14:40:51.683Z,43.25
2022-08-02T14:43:56.508Z,43.78
2022-08-02T14:46:43.538Z,44.15
2022-08-02T14:49:37.154Z,44.42
2022-08-02T14:52:30.903Z,45.79
2022-08-02T14:55:30.663Z,45.44
2022-08-02T14:58:17.922Z,45.35
2022-08-02T15:01:13.784Z,45.00
2022-08-02T15:04:05.102Z,44.56
2022-08-02T15:06:52.633Z,45.13
2022-08-02T15:09:39.449Z,44.56
2022-08-02T15:12:26.215Z,44.35
2022-08-02T15:15:11.846Z,45.69
2022-08-02T15:17:57.831Z,45.38
2022-08-02T15:20:57.183Z,45.03
2022-08-02T15:23:46.798Z,45.23
2022-08-02T15:26:33.546Z,46.01
2022-08-02T15:29:20.768Z,45.32
2022-08-02T15:32:07.214Z,45.49
2022-08-02T15:34:53.333Z,45.85
2022-08-02T15:37:41.511Z,45.29
2022-08-02T15:40:27.875Z,46.09
2022-08-02T15:43:13.480Z,46.54
2022-08-02T15:46:00.529Z,46.33
2022-08-02T15:48:46.919Z,46.60
2022-08-02T15:51:35.595Z,45.86
2022-08-02T15:54:22.738Z,46.40
2022-08-02T15:57:08.428Z,46.12
2022-08-02T15:59:54.933Z,46.74
2022-08-02T16:02:41.023Z,46.23
2022-08-02T16:05:28.663Z,46.93
2022-08-02T16:08:14.833Z,46.11
2022-08-02T16:11:00.371Z,46.69
2022-08-02T16:13:56.066Z,46.38
2022-08-02T16:16:47.637Z,46.35
2022-08-02T16:19:48.850Z,46.42
2022-08-02T16:22:35.901Z,46.96
2022-08-02T16:25:21.230Z,46.70
2022-08-02T16:28:08.076Z,46.90
2022-08-02T16:31:10.508Z,47.33
2022-08-02T16:34:00.558Z,47.77
2022-08-02T16:36:48.378Z,48.74
2022-08-02T16:39:36.074Z,48.87
2022-08-02T16:42:25.628Z,49.03
2022-08-02T16:45:11.649Z,49.12
2022-08-02T16:48:03.563Z,49.33
2022-08-02T16:50:51.224Z,49.73
2022-08-02T16:53:58.972Z,49.91
2022-08-02T16:56:42.633Z,50.17
2022-08-02T16:59:34.044Z,50.48
2022-08-02T17:02:28.992Z,50.62
2022-08-02T17:05:14.858Z,51.43
2022-08-02T17:08:08.276Z,52.48
2022-08-02T17:11:03.333Z,52.80
2022-08-02T17:13:49.424Z,53.26
2022-08-02T17:16:34.746Z,53.58
2022-08-02T17:19:21.760Z,54.02
2022-08-02T17:22:07.533Z,54.25
2022-08-02T17:24:59.331Z,55.07
2022-08-02T17:27:45.930Z,54.86
2022-08-02T17:30:31.380Z,55.51
2022-08-02T17:33:17.244Z,55.43
2022-08-02T17:36:03.023Z,56.20
2022-08-02T17:38:50.212Z,57.02
2022-08-02T17:41:49.008Z,57.62
2022-08-02T17:44:37.743Z,57.76
2022-08-02T17:47:30.943Z,57.90
2022-08-02T17:50:18.246Z,58.31
2022-08-02T17:53:07.016Z,58.61
2022-08-02T17:55:52.630Z,58.94
2022-08-02T17:58:38.282Z,59.19
2022-08-02T18:01:49.213Z,59.14
2022-08-02T18:04:39.948Z,59.66
2022-08-02T18:07:26.051Z,60.19
2022-08-02T18:10:31.301Z,60.04
2022-08-02T18:13:17.734Z,60.20
2022-08-02T18:16:03.892Z,60.32
2022-08-02T18:18:50.716Z,60.64
2022-08-02T18:21:36.995Z,60.58
2022-08-02T18:24:25.459Z,60.41
2022-08-02T18:27:15.529Z,60.78
2022-08-02T18:30:04.535Z,60.88
2022-08-02T18:33:59.134Z,60.96
2022-08-02T18:35:57.462Z,61.65
2022-08-02T18:38:45.651Z,61.71
2022-08-02T18:41:32.009Z,62.36
2022-08-02T18:44:21.161Z,62.58
2022-08-02T18:47:06.858Z,63.58
2022-08-02T18:49:56.285Z,64.06
2022-08-02T18:52:42.163Z,64.24
2022-08-02T18:55:59.612Z,64.09
2022-08-02T18:58:40.650Z,64.01
2022-08-02T19:01:33.586Z,63.62
2022-08-02T19:04:27.493Z,63.51
2022-08-02T19:07:14.533Z,63.86
2022-08-02T19:10:00.616Z,63.73
2022-08-02T19:12:46.599Z,63.99
2022-08-02T19:15:38.263Z,64.10
2022-08-02T19:18:26.930Z,64.36
2022-08-02T19:21:16.100Z,64.65
2022-08-02T19:24:01.668Z,65.27
2022-08-02T19:26:53.743Z,65.74
2022-08-02T19:29:50.832Z,65.66
2022-08-02T19:32:42.298Z,65.99
2022-08-02T19:36:01.779Z,66.47
2022-08-02T19:38:58.110Z,66.96
2022-08-02T19:41:46.908Z,67.25
2022-08-02T19:44:36.401Z,67.93
2022-08-02T19:47:22.942Z,67.99
2022-08-02T19:50:13.003Z,67.90
2022-08-02T19:52:59.432Z,67.89
2022-08-02T19:56:00.687Z,67.29
2022-08-02T19:58:52.087Z,67.19
2022-08-02T20:01:40.278Z,66.88
2022-08-02T20:04:28.393Z,66.78
2022-08-02T20:07:13.939Z,66.58
2022-08-02T20:10:10.860Z,66.79
2022-08-02T20:12:56.839Z,66.80
2022-08-02T20:15:56.051Z,66.71
2022-08-02T20:18:42.393Z,66.77
2022-08-02T20:21:35.638Z,66.93
2022-08-02T20:24:22.770Z,67.13
2022-08-02T20:27:16.563Z,67.69
2022-08-02T20:30:14.306Z,68.18
2022-08-02T20:33:21.887Z,68.62
2022-08-02T20:36:12.411Z,69.22
2022-08-02T20:39:04.673Z,69.55
2022-08-02T20:41:53.022Z,69.73
2022-08-02T20:44:46.889Z,69.89
2022-08-02T20:47:39.098Z,70.05
2022-08-02T20:50:44.964Z,70.41
2022-08-02T20:53:31.035Z,70.45
2022-08-02T20:56:17.313Z,70.48
2022-08-02T20:59:17.819Z,70.77
2022-08-02T21:02:07.555Z,70.66
2022-08-02T21:05:00.065Z,71.03
2022-08-02T21:07:55.013Z,71.24
2022-08-02T21:10:43.717Z,71.45
2022-08-02T21:13:46.854Z,71.47
2022-08-02T21:16:42.609Z,71.59
2022-08-02T21:19:29.612Z,72.17
2022-08-02T21:22:17.183Z,72.41
2022-08-02T21:25:15.706Z,72.14
2022-08-02T21:28:01.558Z,72.30
2022-08-02T21:30:47.889Z,72.51
2022-08-02T21:33:56.845Z,72.56
2022-08-02T21:36:38.880Z,73.02
2022-08-02T21:39:26.361Z,72.91
2022-08-02T21:42:11.825Z,73.24
2022-08-02T21:45:17.458Z,73.23
2022-08-02T21:48:05.722Z,73.00
2022-08-02T21:50:54.172Z,72.97
2022-08-02T21:53:42.126Z,72.97
2022-08-02T21:56:28.389Z,73.04
2022-08-02T21:59:16.185Z,72.99
2022-08-02T22:02:02.530Z,72.78
2022-08-02T22:04:49.560Z,72.50
2022-08-02T22:07:38.502Z,72.29
2022-08-02T22:10:24.212Z,71.88
2022-08-02T22:13:14.365Z,71.45
2022-08-02T22:16:07.670Z,71.24
2022-08-02T22:18:54.990Z,71.01
2022-08-02T22:21:46.713Z,70.51
2022-08-02T22:24:41.289Z,70.28
2022-08-02T22:28:35.255Z,69.62
2022-08-02T22:30:33.018Z,69.59
2022-08-02T22:33:37.005Z,68.80
2022-08-02T22:36:22.447Z,68.67
2022-08-02T22:39:19.087Z,69.03
2022-08-02T22:42:07.293Z,68.68
2022-08-02T22:44:52.523Z,68.75
2022-08-02T22:47:38.674Z,68.91
2022-08-02T22:50:36.896Z,69.36
2022-08-02T22:53:24.759Z,69.72
2022-08-02T22:56:22.488Z,70.14
2022-08-02T23:02:03.175Z,70.92
2022-08-02T23:04:48.938Z,71.05
2022-08-02T23:07:36.317Z,71.13
2022-08-02T23:10:24.463Z,71.22
2022-08-02T23:13:10.132Z,71.00
2022-08-02T23:16:14.090Z,70.98
2022-08-02T23:19:18.496Z,70.82
2022-08-02T23:22:04.041Z,71.20
2022-08-02T23:24:50.259Z,71.27
2022-08-02T23:27:36.233Z,71.02
2022-08-02T23:30:23.085Z,71.09
2022-08-02T23:33:08.617Z,70.56
2022-08-02T23:35:54.132Z,70.32
2022-08-02T23:38:39.654Z,69.99
2022-08-02T23:41:25.401Z,69.89
2022-08-02T23:44:13.969Z,69.97
2022-08-02T23:47:00.552Z,69.70
2022-08-02T23:49:46.306Z,69.79
2022-08-02T23:52:31.753Z,69.66
2022-08-02T23:55:17.363Z,69.50
2022-08-02T23:58:03.146Z,69.33
